createdAt,value
2022-11-06T00:00:17.779Z,100350.78
2022-11-06T00:03:06.388Z,100350.00
2022-11-06T00:06:12.419Z,100350.28
2022-11-06T00:09:01.161Z,100351.44
2022-11-06T00:11:50.840Z,100351.72
2022-11-06T00:14:40.749Z,100349.44
2022-11-06T00:17:29.134Z,100343.03
2022-11-06T00:20:17.668Z,100331.44
2022-11-06T00:23:06.081Z,100342.06
2022-11-06T00:25:56.571Z,100348.41
2022-11-06T00:28:45.137Z,100347.75
2022-11-06T00:31:37.329Z,100349.84
2022-11-06T00:34:25.721Z,100349.22
2022-11-06T00:37:14.146Z,100354.63
2022-11-06T00:40:02.734Z,100349.69
2022-11-06T00:42:56.282Z,100351.63
2022-11-06T00:45:44.722Z,100350.94
2022-11-06T00:48:34.567Z,100344.19
2022-11-06T00:51:24.585Z,100339.09
2022-11-06T00:54:13.926Z,100333.88
2022-11-06T00:57:02.336Z,100321.03
2022-11-06T00:59:50.808Z,100316.69
2022-11-06T01:02:39.536Z,100324.50
2022-11-06T01:05:29.401Z,100324.53
2022-11-06T01:08:18.024Z,100318.69
2022-11-06T01:11:08.790Z,100318.03
2022-11-06T01:13:59.475Z,100316.44
2022-11-06T01:16:48.348Z,100314.03
2022-11-06T01:19:36.804Z,100315.81
2022-11-06T01:22:26.736Z,100313.25
2022-11-06T01:25:15.125Z,100309.75
2022-11-06T01:28:03.517Z,100299.50
2022-11-06T01:30:52.109Z,100302.16
2022-11-06T01:33:40.573Z,100295.44
2022-11-06T01:36:29.297Z,100295.41
2022-11-06T01:39:19.031Z,100286.75
2022-11-06T01:42:07.461Z,100299.53
2022-11-06T01:45:34.844Z,100293.56
2022-11-06T01:48:26.837Z,100286.81
2022-11-06T01:51:15.257Z,100287.59
2022-11-06T01:54:04.431Z,100287.50
2022-11-06T01:56:56.099Z,100282.31
2022-11-06T01:59:46.392Z,100268.41
2022-11-06T02:02:35.034Z,100258.84
2022-11-06T02:05:23.497Z,100250.16
2022-11-06T02:08:15.070Z,100236.41
2022-11-06T02:11:04.086Z,100241.50
2022-11-06T02:14:02.965Z,100238.00
2022-11-06T02:16:55.831Z,100235.91
2022-11-06T02:20:03.203Z,100237.53
2022-11-06T02:23:30.498Z,100239.06
2022-11-06T02:26:48.183Z,100242.34
2022-11-06T02:29:39.513Z,100237.31
2022-11-06T02:32:30.188Z,100238.38
2022-11-06T02:35:21.815Z,100230.78
2022-11-06T02:38:12.211Z,100221.44
2022-11-06T02:41:03.409Z,100222.31
2022-11-06T02:43:55.800Z,100223.34
2022-11-06T02:46:46.698Z,100218.47
2022-11-06T02:49:39.229Z,100221.09
2022-11-06T02:52:30.209Z,100223.66
2022-11-06T02:55:20.988Z,100221.13
2022-11-06T02:58:14.104Z,100224.56
2022-11-06T03:01:06.988Z,100229.69
2022-11-06T03:03:57.619Z,100225.53
2022-11-06T03:06:48.984Z,100226.31
2022-11-06T03:09:37.847Z,100233.88
2022-11-06T03:12:29.203Z,100233.00
2022-11-06T03:15:23.565Z,100251.84
2022-11-06T03:18:16.479Z,100247.72
2022-11-06T03:21:08.526Z,100241.91
2022-11-06T03:23:58.940Z,100241.22
2022-11-06T03:26:49.374Z,100230.53
2022-11-06T03:29:40.680Z,100219.69
2022-11-06T03:32:31.477Z,100215.63
2022-11-06T03:35:24.577Z,100218.44
2022-11-06T03:38:16.349Z,100221.97
2022-11-06T03:41:08.109Z,100216.94
2022-11-06T03:43:57.290Z,100216.13
2022-11-06T03:46:48.601Z,100214.44
2022-11-06T03:49:39.708Z,100221.31
2022-11-06T03:52:32.477Z,100221.31
2022-11-06T03:55:23.278Z,100211.94
2022-11-06T03:58:13.824Z,100205.97
2022-11-06T04:01:05.022Z,100198.25
2022-11-06T04:03:57.519Z,100193.28
2022-11-06T04:06:48.513Z,100190.81
2022-11-06T04:09:57.787Z,100189.19
2022-11-06T04:13:03.894Z,100194.34
2022-11-06T04:15:53.797Z,100192.66
2022-11-06T04:18:42.191Z,100193.44
2022-11-06T04:21:41.060Z,100193.53
2022-11-06T04:25:00.137Z,100189.25
2022-11-06T04:28:03.506Z,100189.34
2022-11-06T04:30:58.270Z,100180.94
2022-11-06T04:33:50.624Z,100181.66
2022-11-06T04:36:43.393Z,100185.25
2022-11-06T04:39:38.182Z,100181.84
2022-11-06T04:42:30.501Z,100188.78
2022-11-06T04:45:23.256Z,100194.00
2022-11-06T04:48:12.035Z,100220.56
2022-11-06T04:51:02.995Z,100213.81
2022-11-06T04:53:52.510Z,100210.44
2022-11-06T04:56:45.821Z,100223.22
2022-11-06T04:59:37.175Z,100207.88
2022-11-06T05:02:25.742Z,100202.81
2022-11-06T05:05:14.185Z,100202.97
2022-11-06T05:08:02.622Z,100212.53
2022-11-06T05:10:50.986Z,100214.34
2022-11-06T05:13:39.393Z,100220.38
2022-11-06T05:16:29.126Z,100225.50
2022-11-06T05:19:17.555Z,100221.28
2022-11-06T05:22:32.023Z,100218.78
2022-11-06T05:25:20.483Z,100215.50
2022-11-06T05:28:09.219Z,100213.97
2022-11-06T05:30:57.996Z,100199.63
2022-11-06T05:33:47.773Z,100192.97
2022-11-06T05:36:36.178Z,100182.91
2022-11-06T05:39:24.544Z,100185.63
2022-11-06T05:42:12.914Z,100188.25
2022-11-06T05:45:01.279Z,100184.06
2022-11-06T05:47:49.688Z,100189.25
2022-11-06T05:50:39.640Z,100189.31
2022-11-06T05:53:37.572Z,100180.78
2022-11-06T05:56:25.975Z,100170.50
2022-11-06T05:59:14.317Z,100169.59
2022-11-06T06:02:02.872Z,100155.09
2022-11-06T06:04:51.370Z,100153.38
2022-11-06T06:07:41.119Z,100156.75
2022-11-06T06:10:29.498Z,100132.06
2022-11-06T06:13:18.122Z,100134.72
2022-11-06T06:16:07.220Z,100146.69
2022-11-06T06:18:55.610Z,100147.56
2022-11-06T06:21:44.111Z,100146.75
2022-11-06T06:24:33.874Z,100142.56
2022-11-06T06:27:22.288Z,100130.66
2022-11-06T06:30:12.710Z,100135.81
2022-11-06T06:33:05.096Z,100130.66
2022-11-06T06:35:53.508Z,100110.94
2022-11-06T06:38:41.907Z,100099.75
2022-11-06T06:41:32.104Z,100096.97
2022-11-06T06:44:20.514Z,100083.97
2022-11-06T06:47:08.943Z,100082.09
2022-11-06T06:49:57.310Z,100079.38
2022-11-06T06:52:45.750Z,100067.47
2022-11-06T06:55:34.125Z,100062.38
2022-11-06T06:58:24.323Z,100058.16
2022-11-06T07:01:13.051Z,100056.53
2022-11-06T07:03:43.833Z,100061.69
2022-11-06T07:06:12.044Z,100057.50
2022-11-06T07:08:40.159Z,100054.09
2022-11-06T07:11:09.570Z,100053.25
2022-11-06T07:13:39.022Z,100048.13
2022-11-06T07:16:08.296Z,100042.13
2022-11-06T07:18:37.207Z,100046.34
2022-11-06T07:21:06.468Z,100051.31
2022-11-06T07:23:35.289Z,100046.06
2022-11-06T07:26:03.931Z,100045.88
2022-11-06T07:28:32.052Z,100049.09
2022-11-06T07:31:01.819Z,100055.72
2022-11-06T07:33:30.133Z,100045.81
2022-11-06T07:36:03.582Z,100030.59
2022-11-06T07:38:31.790Z,100034.47
2022-11-06T07:41:04.075Z,100023.44
2022-11-06T07:43:33.124Z,100016.31
2022-11-06T07:46:03.099Z,100016.31
2022-11-06T07:48:31.612Z,100013.81
2022-11-06T07:50:59.988Z,99989.97
2022-11-06T07:53:28.264Z,100001.31
2022-11-06T07:55:57.123Z,99995.31
2022-11-06T07:58:25.327Z,100002.03
2022-11-06T08:00:55.033Z,99994.25
2022-11-06T08:03:24.932Z,99989.66
2022-11-06T08:05:53.169Z,99993.41
2022-11-06T08:08:21.336Z,100006.41
2022-11-06T08:10:54.020Z,100013.66
2022-11-06T08:13:23.810Z,100020.53
2022-11-06T08:15:51.893Z,100019.09
2022-11-06T08:18:20.024Z,100022.56
2022-11-06T08:20:49.531Z,100018.00
2022-11-06T08:23:17.647Z,100030.53
2022-11-06T08:25:45.754Z,100042.97
2022-11-06T08:28:14.127Z,100049.78
2022-11-06T08:30:42.495Z,100058.88
2022-11-06T08:33:10.788Z,100049.72
2022-11-06T08:35:39.064Z,100046.53
2022-11-06T08:38:11.457Z,100042.00
2022-11-06T08:40:40.181Z,100030.13
2022-11-06T08:43:10.062Z,100028.13
2022-11-06T08:45:38.840Z,100029.44
2022-11-06T08:48:07.973Z,100025.34
2022-11-06T08:50:39.144Z,100023.53
2022-11-06T08:53:07.436Z,100017.75
2022-11-06T08:55:38.366Z,100023.59
2022-11-06T08:58:06.932Z,100024.97
2022-11-06T09:00:35.223Z,100031.31
2022-11-06T09:03:07.137Z,100033.03
2022-11-06T09:05:35.243Z,100018.03
2022-11-06T09:08:03.383Z,100008.69
2022-11-06T09:10:31.553Z,100002.44
2022-11-06T09:13:01.124Z,100003.19
2022-11-06T09:15:29.318Z,99995.41
2022-11-06T09:17:57.424Z,99985.34
2022-11-06T09:20:26.141Z,99978.50
2022-11-06T09:22:54.380Z,99978.00
2022-11-06T09:25:22.549Z,99966.50
2022-11-06T09:27:58.549Z,99955.47
2022-11-06T09:30:29.678Z,99959.88
2022-11-06T09:32:59.038Z,99959.59
2022-11-06T09:35:28.120Z,99948.41
2022-11-06T09:37:56.241Z,99935.34
2022-11-06T09:40:29.818Z,99930.53
2022-11-06T09:43:08.733Z,99926.13
2022-11-06T09:45:41.073Z,99926.13
2022-11-06T09:48:17.682Z,99918.38
2022-11-06T09:50:49.928Z,99916.13
2022-11-06T09:53:21.280Z,99917.06
2022-11-06T09:55:49.470Z,99912.94
2022-11-06T09:58:21.436Z,99918.31
2022-11-06T10:00:52.240Z,99916.50
2022-11-06T10:03:24.933Z,99898.13
2022-11-06T10:05:53.684Z,99894.75
2022-11-06T10:08:23.135Z,99897.72
2022-11-06T10:10:58.295Z,99889.34
2022-11-06T10:13:46.743Z,99893.53
2022-11-06T10:16:22.064Z,99875.81
2022-11-06T10:18:57.274Z,99878.34
2022-11-06T10:21:26.299Z,99855.59
2022-11-06T10:23:57.739Z,99846.75
2022-11-06T10:26:34.911Z,99848.97
2022-11-06T10:29:27.712Z,99839.22
2022-11-06T10:32:09.396Z,99824.03
2022-11-06T10:34:39.182Z,99816.75
2022-11-06T10:37:09.892Z,99820.44
2022-11-06T10:39:38.246Z,99819.72
2022-11-06T10:42:10.933Z,99812.81
2022-11-06T10:44:40.424Z,99804.56
2022-11-06T10:47:15.805Z,99800.84
2022-11-06T10:49:47.324Z,99791.75
2022-11-06T10:52:32.022Z,99789.06
2022-11-06T10:55:15.332Z,99784.16
2022-11-06T10:57:45.947Z,99790.47
2022-11-06T11:00:15.229Z,99795.09
2022-11-06T11:02:47.384Z,99796.28
2022-11-06T11:05:17.706Z,99797.13
2022-11-06T11:07:47.218Z,99787.34
2022-11-06T11:10:32.386Z,99794.50
2022-11-06T11:13:05.493Z,99780.19
2022-11-06T11:15:45.402Z,99770.66
2022-11-06T11:18:23.897Z,99760.16
2022-11-06T11:20:53.201Z,99755.50
2022-11-06T11:23:23.111Z,99748.22
2022-11-06T11:25:52.660Z,99753.47
2022-11-06T11:28:29.464Z,99747.41
2022-11-06T11:31:07.908Z,99723.88
2022-11-06T11:33:37.383Z,99733.38
2022-11-06T11:36:06.698Z,99724.38
2022-11-06T11:38:36.755Z,99711.34
2022-11-06T11:41:09.594Z,99709.31
2022-11-06T11:43:37.804Z,99703.91
2022-11-06T11:46:19.063Z,99705.84
2022-11-06T11:48:50.404Z,99690.09
2022-11-06T11:51:35.010Z,99686.94
2022-11-06T11:54:09.092Z,99676.34
2022-11-06T11:59:37.633Z,99662.16
2022-11-06T12:02:13.898Z,99646.28
2022-11-06T12:04:45.077Z,99648.66
2022-11-06T12:07:22.438Z,99630.06
2022-11-06T12:09:50.656Z,99643.47
2022-11-06T12:12:23.924Z,99637.91
2022-11-06T12:15:07.913Z,99641.97
2022-11-06T12:17:37.886Z,99639.09
2022-11-06T12:20:13.316Z,99624.50
2022-11-06T12:22:44.073Z,99629.03
2022-11-06T12:25:16.186Z,99613.72
2022-11-06T12:27:45.511Z,99605.97
2022-11-06T12:30:15.272Z,99615.75
2022-11-06T12:32:55.029Z,99618.69
2022-11-06T12:35:27.858Z,99612.47
2022-11-06T12:38:03.457Z,99598.22
2022-11-06T12:40:32.691Z,99593.63
2022-11-06T12:43:16.021Z,99607.38
2022-11-06T12:46:04.920Z,99599.47
2022-11-06T12:48:45.416Z,99593.84
2022-11-06T12:51:19.395Z,99586.78
2022-11-06T12:53:58.090Z,99578.03
2022-11-06T12:56:29.340Z,99564.22
2022-11-06T12:59:07.295Z,99560.97
2022-11-06T13:01:44.374Z,99561.44
2022-11-06T13:04:43.551Z,99568.69
2022-11-06T13:07:36.410Z,99551.63
2022-11-06T13:10:19.723Z,99553.56
2022-11-06T13:12:57.310Z,99550.13
2022-11-06T13:15:29.743Z,99540.44
2022-11-06T13:18:01.100Z,99543.22
2022-11-06T13:20:32.822Z,99541.69
2022-11-06T13:23:06.805Z,99546.44
2022-11-06T13:25:39.965Z,99541.09
2022-11-06T13:28:23.596Z,99533.16
2022-11-06T13:30:51.972Z,99543.56
2022-11-06T13:33:24.322Z,99543.28
2022-11-06T13:35:52.459Z,99528.31
2022-11-06T13:38:24.557Z,99545.63
2022-11-06T13:40:57.135Z,99543.41
2022-11-06T13:43:32.650Z,99543.63
2022-11-06T13:46:06.149Z,99536.84
2022-11-06T13:48:42.409Z,99533.25
2022-11-06T13:51:18.336Z,99535.09
2022-11-06T13:53:53.029Z,99531.84
2022-11-06T13:56:52.871Z,99529.53
2022-11-06T13:59:47.913Z,99529.81
2022-11-06T14:02:39.985Z,99519.13
2022-11-06T14:05:44.482Z,99513.56
2022-11-06T14:08:16.793Z,99506.97
2022-11-06T14:10:54.060Z,99499.41
2022-11-06T14:13:27.827Z,99490.34
2022-11-06T14:16:08.231Z,99497.44
2022-11-06T14:18:36.334Z,99491.81
2022-11-06T14:21:51.051Z,99500.06
2022-11-06T14:24:37.246Z,99491.75
2022-11-06T14:27:10.676Z,99483.38
2022-11-06T14:30:03.233Z,99492.84
2022-11-06T14:32:42.936Z,99488.69
2022-11-06T14:35:50.976Z,99487.19
2022-11-06T14:38:37.915Z,99484.59
2022-11-06T14:41:54.559Z,99476.06
2022-11-06T14:44:48.025Z,99469.47
2022-11-06T14:47:35.116Z,99475.88
2022-11-06T14:50:07.410Z,99476.03
2022-11-06T14:52:46.061Z,99476.22
2022-11-06T14:55:31.918Z,99473.63
2022-11-06T14:58:12.848Z,99473.81
2022-11-06T15:00:49.550Z,99488.69
2022-11-06T15:03:25.996Z,99489.69
2022-11-06T15:05:55.319Z,99488.00
2022-11-06T15:08:59.606Z,99498.38
2022-11-06T15:11:51.654Z,99493.19
2022-11-06T15:14:57.322Z,99488.22
2022-11-06T15:17:33.447Z,99477.84
2022-11-06T15:20:22.020Z,99477.84
2022-11-06T15:23:15.072Z,99466.84
2022-11-06T15:25:51.348Z,99467.97
2022-11-06T15:28:22.017Z,99474.22
2022-11-06T15:30:52.170Z,99456.94
2022-11-06T15:33:27.305Z,99467.38
2022-11-06T15:35:56.856Z,99459.06
2022-11-06T15:38:38.184Z,99441.69
2022-11-06T15:41:07.222Z,99447.88
2022-11-06T15:43:37.484Z,99446.19
2022-11-06T15:46:18.573Z,99454.06
2022-11-06T15:48:49.240Z,99456.75
2022-11-06T15:51:24.667Z,99450.75
2022-11-06T15:53:52.842Z,99460.22
2022-11-06T15:56:23.598Z,99458.56
2022-11-06T15:59:07.695Z,99456.25
2022-11-06T16:01:36.051Z,99459.31
2022-11-06T16:04:13.056Z,99457.66
2022-11-06T16:06:43.774Z,99453.41
2022-11-06T16:09:17.739Z,99444.06
2022-11-06T16:11:46.778Z,99440.06
2022-11-06T16:14:15.323Z,99441.75
2022-11-06T16:16:45.645Z,99435.66
2022-11-06T16:19:31.068Z,99436.75
2022-11-06T16:22:03.203Z,99424.75
2022-11-06T16:24:34.024Z,99417.91
2022-11-06T16:27:05.304Z,99420.66
2022-11-06T16:29:33.592Z,99413.09
2022-11-06T16:32:03.431Z,99417.53
2022-11-06T16:34:43.907Z,99421.94
2022-11-06T16:37:39.947Z,99422.13
2022-11-06T16:40:48.595Z,99436.03
2022-11-06T16:43:17.785Z,99439.63
2022-11-06T16:45:57.443Z,99437.16
2022-11-06T16:48:34.370Z,99438.88
2022-11-06T16:51:06.213Z,99470.66
2022-11-06T16:53:37.713Z,99467.31
2022-11-06T16:56:07.550Z,99472.09
2022-11-06T16:58:45.962Z,99471.00
2022-11-06T17:01:19.951Z,99480.31
2022-11-06T17:03:51.202Z,99488.97
2022-11-06T17:06:25.871Z,99491.50
2022-11-06T17:09:09.191Z,99499.50
2022-11-06T17:11:38.671Z,99501.44
2022-11-06T17:14:18.016Z,99505.94
2022-11-06T17:16:46.894Z,99498.34
2022-11-06T17:19:15.085Z,99508.13
2022-11-06T17:21:44.630Z,99504.03
2022-11-06T17:24:40.838Z,99499.78
2022-11-06T17:27:00.898Z,99502.72
2022-11-06T17:29:29.066Z,99496.22
2022-11-06T17:31:57.354Z,99484.56
2022-11-06T17:34:25.516Z,99481.28
2022-11-06T17:36:55.028Z,99483.06
2022-11-06T17:39:23.724Z,99486.38
2022-11-06T17:41:53.478Z,99489.72
2022-11-06T17:44:22.299Z,99477.53
2022-11-06T17:46:50.636Z,99473.22
2022-11-06T17:49:19.031Z,99470.53
2022-11-06T17:52:00.086Z,99467.03
2022-11-06T17:54:32.167Z,99467.94
2022-11-06T17:57:01.853Z,99466.03
2022-11-06T17:59:30.087Z,99471.88
2022-11-06T18:01:58.576Z,99469.19
2022-11-06T18:04:28.192Z,99475.84
2022-11-06T18:06:56.305Z,99480.03
2022-11-06T18:09:24.774Z,99481.84
2022-11-06T18:11:54.837Z,99492.19
2022-11-06T18:14:23.485Z,99487.78
2022-11-06T18:16:51.588Z,99493.63
2022-11-06T18:19:21.818Z,99486.69
2022-11-06T18:21:49.926Z,99490.97
2022-11-06T18:24:18.025Z,99485.03
2022-11-06T18:26:46.344Z,99500.13
2022-11-06T18:29:15.882Z,99494.53
2022-11-06T18:31:43.981Z,99487.72
2022-11-06T18:34:18.395Z,99495.47
2022-11-06T18:36:48.872Z,99496.38
2022-11-06T18:39:17.007Z,99492.88
2022-11-06T18:41:45.213Z,99502.41
2022-11-06T18:44:14.844Z,99517.41
2022-11-06T18:46:42.970Z,99514.28
2022-11-06T18:49:11.669Z,99512.78
2022-11-06T18:51:40.704Z,99512.84
2022-11-06T18:54:10.580Z,99531.16
2022-11-06T18:56:38.895Z,99535.34
2022-11-06T18:59:07.967Z,99532.88
2022-11-06T19:01:37.480Z,99538.84
2022-11-06T19:04:05.862Z,99532.09
2022-11-06T19:06:34.274Z,99521.03
2022-11-06T19:09:02.400Z,99526.31
2022-11-06T19:11:30.506Z,99530.66
2022-11-06T19:13:58.632Z,99525.50
2022-11-06T19:16:26.840Z,99533.25
2022-11-06T19:21:29.961Z,99538.41
2022-11-06T19:24:03.319Z,99539.16
2022-11-06T19:26:32.625Z,99549.50
2022-11-06T19:29:01.317Z,99544.50
2022-11-06T19:31:30.263Z,99565.06
2022-11-06T19:34:00.249Z,99584.16
2022-11-06T19:36:29.298Z,99594.47
2022-11-06T19:38:58.433Z,99580.81
2022-11-06T19:41:26.897Z,99591.00
2022-11-06T19:43:55.016Z,99587.66
2022-11-06T19:46:27.192Z,99587.91
2022-11-06T19:48:59.133Z,99583.63
2022-11-06T19:51:27.291Z,99579.31
2022-11-06T19:53:55.527Z,99578.41
2022-11-06T19:56:23.819Z,99581.63
2022-11-06T19:58:52.794Z,99579.16
2022-11-06T20:01:21.780Z,99587.66
2022-11-06T20:03:50.040Z,99586.66
2022-11-06T20:06:19.638Z,99576.25
2022-11-06T20:08:48.981Z,99589.19
2022-11-06T20:11:17.312Z,99584.75
2022-11-06T20:13:45.687Z,99578.69
2022-11-06T20:16:15.627Z,99576.84
2022-11-06T20:18:43.840Z,99578.50
2022-11-06T20:21:12.945Z,99580.19
2022-11-06T20:23:42.396Z,99576.03
2022-11-06T20:26:11.205Z,99584.59
2022-11-06T20:28:39.355Z,99578.69
2022-11-06T20:31:08.143Z,99578.69
2022-11-06T20:33:36.537Z,99578.69
2022-11-06T20:36:12.064Z,99579.56
2022-11-06T20:38:41.721Z,99581.34
2022-11-06T20:41:09.849Z,99589.31
2022-11-06T20:43:37.925Z,99601.34
2022-11-06T20:46:06.317Z,99593.84
2022-11-06T20:48:34.681Z,99606.66
2022-11-06T20:51:03.979Z,99613.50
2022-11-06T20:53:32.397Z,99620.50
2022-11-06T20:56:02.987Z,99620.50
2022-11-06T20:58:31.516Z,99614.50
2022-11-06T21:01:03.481Z,99624.72
2022-11-06T21:03:52.363Z,99630.66
2022-11-06T21:06:40.821Z,99635.81
2022-11-06T21:09:29.226Z,99624.66
2022-11-06T21:12:18.987Z,99630.66
2022-11-06T21:15:08.921Z,99635.97
2022-11-06T21:17:57.384Z,99636.88
2022-11-06T21:20:45.798Z,99642.97
2022-11-06T21:23:34.633Z,99661.94
2022-11-06T21:26:25.444Z,99661.94
2022-11-06T21:29:15.166Z,99666.28
2022-11-06T21:32:03.595Z,99669.09
2022-11-06T21:34:52.018Z,99669.41
2022-11-06T21:37:40.360Z,99676.72
2022-11-06T21:40:28.818Z,99663.34
2022-11-06T21:43:17.316Z,99669.28
2022-11-06T21:46:08.143Z,99668.50
2022-11-06T21:48:57.233Z,99655.59
2022-11-06T21:51:45.761Z,99649.50
2022-11-06T21:54:51.636Z,99645.97
2022-11-06T21:57:40.658Z,99645.09
2022-11-06T22:00:29.091Z,99642.53
2022-11-06T22:03:18.860Z,99638.13
2022-11-06T22:06:08.281Z,99644.03
2022-11-06T22:08:58.704Z,99633.59
2022-11-06T22:11:47.084Z,99640.41
2022-11-06T22:14:35.526Z,99642.75
2022-11-06T22:17:23.919Z,99643.56
2022-11-06T22:20:13.921Z,99652.09
2022-11-06T22:23:02.311Z,99654.53
2022-11-06T22:25:50.680Z,99665.63
2022-11-06T22:28:39.107Z,99662.28
2022-11-06T22:31:27.570Z,99671.44
2022-11-06T22:34:15.996Z,99673.97
2022-11-06T22:37:05.742Z,99675.63
2022-11-06T22:39:54.152Z,99688.47
2022-11-06T22:42:45.802Z,99684.13
2022-11-06T22:45:36.978Z,99685.81
2022-11-06T22:48:25.737Z,99684.00
2022-11-06T22:51:15.464Z,99679.66
2022-11-06T22:54:05.665Z,99683.84
2022-11-06T22:56:53.999Z,99685.50
2022-11-06T22:59:42.399Z,99682.06
2022-11-06T23:02:30.782Z,99676.06
2022-11-06T23:05:19.142Z,99678.59
2022-11-06T23:08:07.566Z,99682.69
2022-11-06T23:10:57.350Z,99685.19
2022-11-06T23:13:45.922Z,99693.75
2022-11-06T23:16:52.101Z,99689.47
2022-11-06T23:19:40.459Z,99699.78
2022-11-06T23:22:37.868Z,99699.03
2022-11-06T23:25:26.679Z,99700.56
2022-11-06T23:28:16.398Z,99701.31
2022-11-06T23:31:07.414Z,99705.56
2022-11-06T23:33:56.241Z,99708.88
2022-11-06T23:36:44.611Z,99708.00
2022-11-06T23:39:32.965Z,99705.28
2022-11-06T23:42:22.674Z,99710.28
2022-11-06T23:45:29.767Z,99703.34
2022-11-06T23:48:18.217Z,99696.47
2022-11-06T23:51:06.938Z,99699.03
2022-11-06T23:53:55.506Z,99705.03
2022-11-06T23:56:43.892Z,99710.22
2022-11-06T23:59:32.265Z,99718.78
